Ana Sayfa
METAR-TAF:

METAR-TAF

Havaalanları :

Bingöl Havalimanı

Bingöl, Türkiye

Enlem: 38-51-40N, Boylam: 40-35-33E, yükseklik: 1063 m

Güncel hava durumu gözlemi

Rapor saat 08:50 UTC de 32 dakika önce yapıldı.
Rüzgar batıdan 17 kt
Sıcaklık 3°C
Nem 81%
Basınç 1007 hPa
Görüş mesafesi: 7000 m
1500 ft yükseklikte parçalı bulutlu
3300 ft yükseklikte parçalı çok bulutlu
8000 ft yükseklikte çok bulutlu
hafif yağmur

METAR: LTCU 240850Z 28017KT 7000 -RA SCT015 BKN033 OVC080 03/M00 Q1007

Saat: 12:22 (09:22 UTC)

Tahmin

Rapor saat 07:40 UTC de 1 saat ve 42 dakika önce yapıldı.
Ayın 24'si saat 09 UTC'den ayın 24'si saat 18 UTC'ye kadar geçerli Tahmin
Rüzgar batıdan 12 kt
Görüş mesafesi: 7000 m
1000 ft yükseklikte parçalı bulutlu
3000 ft yükseklikte parçalı çok bulutlu
8000 ft yükseklikte çok bulutlu
hafif yağmur

TAF: LTCU 240740Z 2409/2418 26012KT 7000 -RA SCT010 BKN030 OVC080

4.000'den fazla havaalanı için hava durumu gözlemleri ve tahminleri (METAR ve TAF raporları).

Kullanılabilir istasyonlar harita üzerinde sarı ve kırmızı noktalarla gösterilir.

İstasyonun adını görmek için fareyi noktanın üzerinde gezdirin.

Sonrasında hava gözlem ve tahminlerini görmek için tıklayın.

Haritayı değiştirmek için: yaklaştırmak için siyah artı işaretli yeşil düğmeye ve uzaklaştırmak için de eksi işaretli düğmeye hızla tıklayın; bitişik haritalar için yeşil okları kullanın.


METAR-TAF: